createdAt,value
2022-12-18T00:01:16.644Z,8.67
2022-12-18T00:03:43.916Z,8.30
2022-12-18T00:06:11.167Z,8.70
2022-12-18T00:08:37.766Z,7.97
2022-12-18T00:11:09.214Z,8.80
2022-12-18T00:13:36.503Z,8.60
2022-12-18T00:16:04.746Z,8.93
2022-12-18T00:18:31.938Z,8.80
2022-12-18T00:21:01.630Z,8.73
2022-12-18T00:23:28.967Z,8.70
2022-12-18T00:25:55.936Z,9.00
2022-12-18T00:28:22.588Z,8.47
2022-12-18T00:30:52.357Z,8.80
2022-12-18T00:33:19.052Z,9.07
2022-12-18T00:35:45.632Z,9.00
2022-12-18T00:38:12.169Z,9.20
2022-12-18T00:40:38.760Z,9.47
2022-12-18T00:43:05.332Z,9.20
2022-12-18T00:45:32.232Z,10.30
2022-12-18T00:47:58.944Z,10.80
2022-12-18T00:50:25.978Z,10.23
2022-12-18T00:52:52.782Z,11.23
2022-12-18T00:55:19.924Z,11.93
2022-12-18T00:57:47.249Z,11.87
2022-12-18T01:00:15.773Z,17.97
2022-12-18T01:02:43.409Z,14.00
2022-12-18T01:05:11.628Z,13.00
2022-12-18T01:07:38.415Z,13.33
2022-12-18T01:10:06.184Z,13.53
2022-12-18T01:12:36.648Z,13.50
2022-12-18T01:15:03.877Z,14.20
2022-12-18T01:17:30.449Z,13.83
2022-12-18T01:19:57.799Z,13.83
2022-12-18T01:22:24.556Z,14.40
2022-12-18T01:24:51.238Z,14.20
2022-12-18T01:27:17.826Z,13.00
2022-12-18T01:29:44.453Z,12.80
2022-12-18T01:32:11.087Z,11.90
2022-12-18T01:34:37.995Z,10.47
2022-12-18T01:37:05.693Z,10.47
2022-12-18T01:39:35.528Z,9.67
2022-12-18T01:42:11.582Z,9.03
2022-12-18T01:45:27.333Z,9.23
2022-12-18T01:48:00.295Z,8.13
2022-12-18T01:50:39.964Z,7.73
2022-12-18T01:53:22.386Z,8.33
2022-12-18T01:55:57.481Z,7.73
2022-12-18T01:58:33.453Z,7.13
2022-12-18T02:01:00.138Z,7.50
2022-12-18T02:03:26.867Z,8.17
2022-12-18T02:06:25.615Z,7.80
2022-12-18T02:09:15.103Z,8.03
2022-12-18T02:11:48.386Z,7.90
2022-12-18T02:14:29.402Z,7.83
2022-12-18T02:17:06.989Z,8.33
2022-12-18T02:19:36.676Z,9.27
2022-12-18T02:22:28.888Z,8.47
2022-12-18T02:25:14.783Z,8.73
2022-12-18T02:27:42.731Z,8.83
2022-12-18T02:30:09.690Z,9.00
2022-12-18T02:32:44.805Z,9.23
2022-12-18T02:35:18.307Z,9.10
2022-12-18T02:37:48.222Z,9.07
2022-12-18T02:40:16.017Z,9.20
2022-12-18T02:42:42.689Z,8.90
2022-12-18T02:45:11.426Z,9.13
2022-12-18T02:47:40.732Z,8.97
2022-12-18T02:50:43.556Z,9.37
2022-12-18T02:53:36.711Z,9.80
2022-12-18T02:56:17.044Z,9.43
2022-12-18T02:59:06.956Z,8.93
2022-12-18T03:02:24.814Z,9.20
2022-12-18T03:05:16.492Z,9.50
2022-12-18T03:07:54.636Z,10.20
2022-12-18T03:10:26.287Z,11.53
2022-12-18T03:12:57.562Z,15.77
2022-12-18T03:15:29.424Z,17.67
2022-12-18T03:18:07.158Z,15.13
2022-12-18T03:20:35.560Z,13.43
2022-12-18T03:23:14.489Z,11.43
2022-12-18T03:25:50.448Z,10.67
2022-12-18T03:28:21.333Z,10.97
2022-12-18T03:30:55.972Z,9.63
2022-12-18T03:33:29.972Z,10.20
2022-12-18T03:35:57.809Z,11.70
2022-12-18T03:38:24.586Z,11.13
2022-12-18T03:40:59.714Z,11.13
2022-12-18T03:43:34.797Z,10.97
2022-12-18T03:46:25.452Z,10.70
2022-12-18T03:49:00.252Z,10.43
2022-12-18T03:51:51.274Z,11.13
2022-12-18T03:54:18.897Z,11.00
2022-12-18T03:57:00.792Z,9.47
2022-12-18T03:59:30.116Z,9.83
2022-12-18T04:01:59.115Z,9.90
2022-12-18T04:04:27.797Z,9.57
2022-12-18T04:06:55.229Z,10.47
2022-12-18T04:09:22.898Z,9.40
2022-12-18T04:11:52.563Z,10.40
2022-12-18T04:14:19.130Z,9.23
2022-12-18T04:16:49.723Z,9.87
2022-12-18T04:19:18.672Z,9.03
2022-12-18T04:21:48.162Z,9.90
2022-12-18T04:24:14.966Z,9.77
2022-12-18T04:26:50.027Z,10.00
2022-12-18T04:29:18.779Z,9.33
2022-12-18T04:31:45.441Z,9.27
2022-12-18T04:34:12.403Z,13.00
2022-12-18T04:36:44.642Z,14.93
2022-12-18T04:39:11.309Z,11.67
2022-12-18T04:41:37.965Z,13.27
2022-12-18T04:44:05.643Z,13.40
2022-12-18T04:46:32.267Z,12.57
2022-12-18T04:48:58.895Z,12.93
2022-12-18T04:51:26.825Z,13.20
2022-12-18T04:53:54.580Z,12.50
2022-12-18T04:56:21.279Z,12.13
2022-12-18T04:58:47.891Z,12.07
2022-12-18T05:01:15.788Z,11.40
2022-12-18T05:03:43.582Z,11.33
2022-12-18T05:06:10.853Z,11.20
2022-12-18T05:08:37.485Z,11.40
2022-12-18T05:11:06.978Z,10.93
2022-12-18T05:13:33.938Z,11.03
2022-12-18T05:16:00.885Z,10.63
2022-12-18T05:18:27.533Z,10.63
2022-12-18T05:20:54.855Z,10.63
2022-12-18T05:23:22.476Z,11.10
2022-12-18T05:25:56.415Z,11.40
2022-12-18T05:28:24.094Z,10.93
2022-12-18T05:30:52.154Z,10.70
2022-12-18T05:33:23.722Z,10.90
2022-12-18T05:35:54.996Z,11.40
2022-12-18T05:38:22.646Z,10.63
2022-12-18T05:40:49.813Z,11.10
2022-12-18T05:43:21.225Z,10.73
2022-12-18T05:45:48.853Z,10.63
2022-12-18T05:48:16.275Z,11.10
2022-12-18T05:50:44.932Z,11.27
2022-12-18T05:53:11.608Z,11.30
2022-12-18T05:55:40.542Z,13.33
2022-12-18T05:58:08.271Z,11.60
2022-12-18T06:00:36.833Z,12.70
2022-12-18T06:03:03.716Z,11.73
2022-12-18T06:05:30.399Z,11.77
2022-12-18T06:07:56.981Z,11.43
2022-12-18T06:10:23.541Z,12.33
2022-12-18T06:12:50.075Z,12.20
2022-12-18T06:15:16.665Z,12.23
2022-12-18T06:17:43.566Z,11.93
2022-12-18T06:20:11.278Z,11.50
2022-12-18T06:22:37.823Z,11.60
2022-12-18T06:25:04.945Z,12.23
2022-12-18T06:27:31.523Z,13.07
2022-12-18T06:29:58.200Z,13.03
2022-12-18T06:32:24.779Z,12.30
2022-12-18T06:34:51.353Z,13.77
2022-12-18T06:37:17.946Z,13.20
2022-12-18T06:39:44.512Z,12.77
2022-12-18T06:42:11.135Z,12.63
2022-12-18T06:44:37.714Z,12.97
2022-12-18T06:47:04.303Z,13.00
2022-12-18T06:49:30.931Z,13.10
2022-12-18T06:51:57.489Z,11.63
2022-12-18T06:54:24.038Z,12.70
2022-12-18T06:56:50.590Z,12.70
2022-12-18T06:59:17.658Z,12.93
2022-12-18T07:01:44.492Z,14.00
2022-12-18T07:04:11.190Z,13.43
2022-12-18T07:06:37.739Z,13.43
2022-12-18T07:09:04.411Z,14.20
2022-12-18T07:11:33.765Z,13.40
2022-12-18T07:14:00.474Z,13.23
2022-12-18T07:16:29.343Z,13.87
2022-12-18T07:18:56.733Z,13.83
2022-12-18T07:21:24.873Z,14.47
2022-12-18T07:23:51.420Z,13.57
2022-12-18T07:26:19.914Z,14.30
2022-12-18T07:28:46.983Z,14.77
2022-12-18T07:31:16.868Z,14.97
2022-12-18T07:33:43.981Z,15.87
2022-12-18T07:36:10.909Z,16.87
2022-12-18T07:38:37.613Z,17.27
2022-12-18T07:41:12.201Z,16.20
2022-12-18T07:43:40.091Z,15.50
2022-12-18T07:46:07.739Z,15.37
2022-12-18T07:48:34.516Z,15.07
2022-12-18T07:51:01.815Z,14.57
2022-12-18T07:53:28.666Z,14.60
2022-12-18T07:56:31.909Z,17.37
2022-12-18T07:58:50.715Z,16.37
2022-12-18T08:01:17.452Z,16.77
2022-12-18T08:03:44.242Z,27.70
2022-12-18T08:06:11.655Z,20.13
2022-12-18T08:08:38.219Z,16.60
2022-12-18T08:11:04.986Z,16.50
2022-12-18T08:13:31.745Z,17.77
2022-12-18T08:16:03.473Z,16.13
2022-12-18T08:18:30.298Z,14.77
2022-12-18T08:20:57.122Z,15.60
2022-12-18T08:23:26.448Z,15.83
2022-12-18T08:25:55.199Z,15.33
2022-12-18T08:28:21.802Z,14.93
2022-12-18T08:30:53.036Z,14.30
2022-12-18T08:33:19.943Z,15.43
2022-12-18T08:35:46.545Z,14.00
2022-12-18T08:38:13.126Z,15.60
2022-12-18T08:40:39.660Z,14.10
2022-12-18T08:43:25.125Z,14.53
2022-12-18T08:45:51.779Z,14.63
2022-12-18T08:48:22.186Z,13.63
2022-12-18T08:50:59.564Z,14.23
2022-12-18T08:53:30.277Z,14.33
2022-12-18T08:55:59.399Z,14.90
2022-12-18T08:58:25.972Z,15.87
2022-12-18T09:00:52.587Z,15.40
2022-12-18T09:03:20.878Z,14.93
2022-12-18T09:05:49.087Z,15.37
2022-12-18T09:08:15.690Z,15.47
2022-12-18T09:10:44.348Z,15.63
2022-12-18T09:13:11.890Z,16.53
2022-12-18T09:15:46.360Z,16.73
2022-12-18T09:18:13.975Z,17.37
2022-12-18T09:20:40.544Z,17.73
2022-12-18T09:23:07.820Z,17.17
2022-12-18T09:25:36.710Z,17.17
2022-12-18T09:28:05.593Z,17.03
2022-12-18T09:30:34.382Z,16.57
2022-12-18T09:33:01.567Z,16.90
2022-12-18T09:35:28.852Z,16.70
2022-12-18T09:37:55.732Z,19.13
2022-12-18T09:40:26.363Z,17.97
2022-12-18T09:42:56.514Z,16.63
2022-12-18T09:45:23.732Z,16.60
2022-12-18T09:47:51.752Z,16.50
2022-12-18T09:50:24.840Z,16.27
2022-12-18T09:52:54.655Z,16.43
2022-12-18T09:55:37.341Z,15.17
2022-12-18T09:58:14.335Z,16.90
2022-12-18T10:00:42.521Z,17.77
2022-12-18T10:03:14.120Z,19.30
2022-12-18T10:05:43.498Z,18.87
2022-12-18T10:08:12.646Z,17.87
2022-12-18T10:10:45.060Z,18.33
2022-12-18T10:13:21.330Z,17.57
2022-12-18T10:16:16.276Z,17.60
2022-12-18T10:19:01.175Z,15.93
2022-12-18T10:21:39.673Z,17.20
2022-12-18T10:24:19.771Z,16.07
2022-12-18T10:26:54.510Z,17.90
2022-12-18T10:29:21.126Z,16.13
2022-12-18T10:31:47.697Z,16.63
2022-12-18T10:34:15.661Z,17.10
2022-12-18T10:36:42.327Z,18.37
2022-12-18T10:39:21.189Z,16.77
2022-12-18T10:41:47.832Z,17.00
2022-12-18T10:44:21.424Z,17.20
2022-12-18T10:46:50.757Z,17.10
2022-12-18T10:49:26.676Z,18.50
2022-12-18T10:52:08.715Z,16.57
2022-12-18T10:54:36.072Z,19.20
2022-12-18T10:57:16.851Z,21.37
2022-12-18T10:59:54.723Z,20.93
2022-12-18T11:02:31.401Z,20.00
2022-12-18T11:04:58.224Z,21.17
2022-12-18T11:07:24.928Z,20.97
2022-12-18T11:10:04.185Z,19.73
2022-12-18T11:12:30.908Z,18.57
2022-12-18T11:15:01.065Z,18.30
2022-12-18T11:17:36.504Z,19.97
2022-12-18T11:20:27.970Z,19.80
2022-12-18T11:23:11.657Z,17.80
2022-12-18T11:25:39.243Z,18.13
2022-12-18T11:28:29.160Z,18.73
2022-12-18T11:31:13.843Z,18.47
2022-12-18T11:33:58.479Z,20.17
2022-12-18T11:36:34.365Z,19.03
2022-12-18T11:39:07.200Z,19.17
2022-12-18T11:42:05.972Z,19.13
2022-12-18T11:44:42.006Z,19.07
2022-12-18T11:47:16.777Z,18.97
2022-12-18T11:49:43.698Z,17.80
2022-12-18T11:52:26.694Z,21.37
2022-12-18T11:55:00.089Z,18.90
2022-12-18T11:58:04.193Z,20.37
2022-12-18T12:00:31.153Z,18.13
2022-12-18T12:03:06.516Z,19.13
2022-12-18T12:06:01.169Z,19.53
2022-12-18T12:08:33.918Z,19.83
2022-12-18T12:11:16.561Z,21.07
2022-12-18T12:13:53.377Z,20.47
2022-12-18T12:16:31.364Z,19.07
2022-12-18T12:19:05.074Z,19.43
2022-12-18T12:21:44.279Z,20.27
2022-12-18T12:24:26.958Z,20.90
2022-12-18T12:26:57.798Z,19.60
2022-12-18T12:29:27.833Z,20.10
2022-12-18T12:32:15.653Z,19.83
2022-12-18T12:35:09.600Z,20.33
2022-12-18T12:38:01.023Z,19.40
2022-12-18T12:43:43.462Z,19.13
2022-12-18T12:46:17.485Z,20.07
2022-12-18T12:48:54.126Z,21.07
2022-12-18T12:51:22.988Z,20.37
2022-12-18T12:53:50.349Z,21.13
2022-12-18T12:56:19.963Z,20.67
2022-12-18T12:59:18.152Z,20.77
2022-12-18T13:01:54.851Z,20.30
2022-12-18T13:04:27.560Z,20.20
2022-12-18T13:07:07.624Z,20.60
2022-12-18T13:09:36.967Z,20.50
2022-12-18T13:12:29.593Z,19.70
2022-12-18T13:15:40.836Z,20.30
2022-12-18T13:18:10.209Z,19.90
2022-12-18T13:20:38.400Z,21.27
2022-12-18T13:23:27.747Z,20.70
2022-12-18T13:26:29.609Z,20.47
2022-12-18T13:28:57.442Z,20.73
2022-12-18T13:31:42.682Z,21.67
2022-12-18T13:34:26.889Z,20.50
2022-12-18T13:36:56.757Z,21.30
2022-12-18T13:39:30.267Z,21.70
2022-12-18T13:42:07.178Z,20.53
2022-12-18T13:44:40.857Z,23.00
2022-12-18T13:47:26.691Z,22.40
2022-12-18T13:49:53.750Z,20.97
2022-12-18T13:52:24.244Z,20.60
2022-12-18T13:55:01.026Z,21.50
2022-12-18T13:57:45.599Z,21.87
2022-12-18T14:00:19.861Z,20.23
2022-12-18T14:02:47.099Z,20.37
2022-12-18T14:05:35.525Z,20.93
2022-12-18T14:08:13.977Z,21.47
2022-12-18T14:10:48.628Z,20.50
2022-12-18T14:13:29.954Z,20.63
2022-12-18T14:15:56.845Z,23.43
2022-12-18T14:18:27.781Z,21.90
2022-12-18T14:21:04.351Z,21.23
2022-12-18T14:23:43.026Z,21.07
2022-12-18T14:26:30.536Z,21.90
2022-12-18T14:28:59.614Z,21.53
2022-12-18T14:31:29.209Z,22.20
2022-12-18T14:33:56.228Z,21.83
2022-12-18T14:36:25.780Z,23.67
2022-12-18T14:39:02.803Z,21.63
2022-12-18T14:41:29.771Z,24.07
2022-12-18T14:43:56.455Z,21.80
2022-12-18T14:46:48.176Z,20.10
2022-12-18T14:49:34.872Z,17.47
2022-12-18T14:52:06.283Z,17.60
2022-12-18T14:54:36.142Z,21.57
2022-12-18T14:57:24.463Z,17.77
2022-12-18T14:59:51.779Z,17.13
2022-12-18T15:02:24.376Z,17.80
2022-12-18T15:05:17.106Z,16.63
2022-12-18T15:07:48.009Z,15.57
2022-12-18T15:10:17.795Z,15.60
2022-12-18T15:13:04.643Z,16.47
2022-12-18T15:15:34.721Z,17.20
2022-12-18T15:18:09.399Z,18.07
2022-12-18T15:20:56.223Z,17.43
2022-12-18T15:23:28.997Z,17.83
2022-12-18T15:25:58.792Z,17.37
2022-12-18T15:28:34.593Z,16.10
2022-12-18T15:31:15.877Z,16.60
2022-12-18T15:33:53.928Z,17.10
2022-12-18T15:36:26.087Z,15.53
2022-12-18T15:38:55.503Z,19.00
2022-12-18T15:41:33.861Z,18.70
2022-12-18T15:44:03.828Z,20.33
2022-12-18T15:46:31.886Z,19.60
2022-12-18T15:49:02.314Z,19.83
2022-12-18T15:51:31.891Z,19.70
2022-12-18T15:54:00.864Z,19.77
2022-12-18T15:56:46.234Z,19.83
2022-12-18T15:59:15.839Z,20.67
2022-12-18T16:01:44.330Z,20.70
2022-12-18T16:04:14.128Z,19.77
2022-12-18T16:07:12.763Z,21.43
2022-12-18T16:09:27.857Z,20.77
2022-12-18T16:11:54.454Z,21.50
2022-12-18T16:14:24.682Z,21.13
2022-12-18T16:16:54.458Z,20.77
2022-12-18T16:19:22.287Z,21.17
2022-12-18T16:21:50.426Z,20.80
2022-12-18T16:24:24.883Z,21.87
2022-12-18T16:26:52.749Z,20.93
2022-12-18T16:29:20.458Z,19.60
2022-12-18T16:31:47.055Z,21.53
2022-12-18T16:34:32.893Z,21.60
2022-12-18T16:37:06.010Z,19.53
2022-12-18T16:39:36.672Z,27.03
2022-12-18T16:42:20.533Z,20.13
2022-12-18T16:44:48.746Z,19.33
2022-12-18T16:47:15.632Z,20.10
2022-12-18T16:49:43.404Z,24.17
2022-12-18T16:52:09.992Z,25.37
2022-12-18T16:54:36.853Z,35.37
2022-12-18T16:57:05.321Z,28.60
2022-12-18T16:59:34.870Z,26.27
2022-12-18T17:02:02.012Z,21.93
2022-12-18T17:04:28.666Z,21.73
2022-12-18T17:06:55.272Z,18.17
2022-12-18T17:09:24.860Z,17.33
2022-12-18T17:11:51.812Z,15.60
2022-12-18T17:14:20.618Z,18.53
2022-12-18T17:16:49.172Z,18.87
2022-12-18T17:19:17.926Z,18.00
2022-12-18T17:21:45.478Z,17.17
2022-12-18T17:24:12.225Z,15.73
2022-12-18T17:26:39.011Z,15.90
2022-12-18T17:29:05.667Z,49.07
2022-12-18T17:31:32.511Z,18.10
2022-12-18T17:34:02.146Z,16.50
2022-12-18T17:36:29.020Z,18.27
2022-12-18T17:38:57.470Z,19.77
2022-12-18T17:41:24.866Z,23.13
2022-12-18T17:43:53.045Z,19.27
2022-12-18T17:46:19.954Z,16.40
2022-12-18T17:48:46.640Z,14.77
2022-12-18T17:51:14.108Z,19.17
2022-12-18T17:53:41.770Z,15.00
2022-12-18T17:56:11.604Z,16.00
2022-12-18T17:58:38.504Z,14.87
2022-12-18T18:01:06.752Z,14.73
2022-12-18T18:03:34.411Z,16.53
2022-12-18T18:06:02.185Z,16.73
2022-12-18T18:08:28.868Z,20.90
2022-12-18T18:11:15.996Z,18.60
2022-12-18T18:14:00.716Z,20.37
2022-12-18T18:16:34.082Z,17.90
2022-12-18T18:19:02.885Z,20.00
2022-12-18T18:21:29.907Z,18.60
2022-12-18T18:24:00.860Z,18.43
2022-12-18T18:26:29.341Z,28.27
2022-12-18T18:28:57.548Z,17.20
2022-12-18T18:31:24.767Z,19.33
2022-12-18T18:33:51.713Z,18.43
2022-12-18T18:36:18.260Z,18.20
2022-12-18T18:38:48.354Z,18.17
2022-12-18T18:41:15.890Z,17.37
2022-12-18T18:43:42.803Z,16.33
2022-12-18T18:46:11.557Z,15.80
2022-12-18T18:48:40.152Z,15.47
2022-12-18T18:51:11.737Z,14.47
2022-12-18T18:53:43.622Z,15.67
2022-12-18T18:58:59.846Z,15.53
2022-12-18T19:01:27.151Z,15.47
2022-12-18T19:03:54.402Z,18.87
2022-12-18T19:06:26.432Z,19.73
2022-12-18T19:08:54.755Z,35.77
2022-12-18T19:11:41.347Z,55.93
2022-12-18T19:14:09.992Z,28.43
2022-12-18T19:16:37.109Z,17.93
2022-12-18T19:19:04.264Z,16.80
2022-12-18T19:21:34.244Z,15.23
2022-12-18T19:24:02.733Z,15.90
2022-12-18T19:26:30.243Z,16.27
2022-12-18T19:29:08.665Z,16.93
2022-12-18T19:31:37.175Z,16.50
2022-12-18T19:34:07.574Z,16.17
2022-12-18T19:36:37.013Z,17.13
2022-12-18T19:39:12.565Z,33.17
2022-12-18T19:41:39.933Z,21.83
2022-12-18T19:44:08.687Z,21.53
2022-12-18T19:46:36.270Z,21.80
2022-12-18T19:49:07.289Z,26.23
2022-12-18T19:51:34.241Z,24.23
2022-12-18T19:54:01.900Z,17.73
2022-12-18T19:56:33.604Z,18.73
2022-12-18T19:59:01.143Z,19.23
2022-12-18T20:01:28.581Z,17.87
2022-12-18T20:03:56.808Z,19.33
2022-12-18T20:06:31.034Z,19.63
2022-12-18T20:09:01.188Z,26.80
2022-12-18T20:11:32.610Z,19.53
2022-12-18T20:13:59.287Z,20.90
2022-12-18T20:16:25.878Z,21.43
2022-12-18T20:18:56.929Z,19.83
2022-12-18T20:21:23.956Z,20.70
2022-12-18T20:23:50.626Z,20.27
2022-12-18T20:26:17.319Z,19.30
2022-12-18T20:28:43.899Z,19.80
2022-12-18T20:31:13.847Z,18.77
2022-12-18T20:33:42.044Z,19.93
2022-12-18T20:36:14.222Z,20.03
2022-12-18T20:38:41.899Z,19.80
2022-12-18T20:41:16.977Z,20.43
2022-12-18T20:43:44.314Z,19.57
2022-12-18T20:46:13.927Z,22.43
2022-12-18T20:48:40.865Z,21.43
2022-12-18T20:51:09.513Z,24.23
2022-12-18T20:53:36.706Z,30.37
2022-12-18T20:56:09.565Z,29.60
2022-12-18T20:58:36.341Z,25.33
2022-12-18T21:01:11.608Z,20.47
2022-12-18T21:03:40.159Z,21.67
2022-12-18T21:06:07.435Z,23.67
2022-12-18T21:08:34.384Z,23.40
2022-12-18T21:11:42.207Z,20.80
2022-12-18T21:14:17.930Z,21.30
2022-12-18T21:16:44.959Z,21.73
2022-12-18T21:19:12.938Z,21.90
2022-12-18T21:21:40.108Z,20.57
2022-12-18T21:24:07.737Z,20.43
2022-12-18T21:26:34.385Z,20.37
2022-12-18T21:29:03.495Z,19.70
2022-12-18T21:31:33.082Z,23.20
2022-12-18T21:34:02.114Z,21.90
2022-12-18T21:36:30.235Z,21.60
2022-12-18T21:38:57.657Z,19.93
2022-12-18T21:41:44.585Z,20.17
2022-12-18T21:44:13.678Z,19.77
2022-12-18T21:46:43.177Z,19.33
2022-12-18T21:49:10.625Z,20.83
2022-12-18T21:51:37.687Z,18.30
2022-12-18T21:54:04.544Z,19.33
2022-12-18T21:56:47.027Z,20.57
2022-12-18T21:59:18.961Z,21.27
2022-12-18T22:01:46.828Z,18.97
2022-12-18T22:04:14.089Z,20.37
2022-12-18T22:06:42.732Z,18.77
2022-12-18T22:09:11.056Z,19.87
2022-12-18T22:11:37.792Z,19.80
2022-12-18T22:14:04.667Z,20.30
2022-12-18T22:16:31.252Z,23.63
2022-12-18T22:18:57.866Z,18.57
2022-12-18T22:21:29.316Z,18.43
2022-12-18T22:23:58.166Z,18.93
2022-12-18T22:26:25.934Z,18.80
2022-12-18T22:29:11.125Z,17.30
2022-12-18T22:31:38.149Z,18.53
2022-12-18T22:34:05.137Z,17.73
2022-12-18T22:36:40.506Z,17.40
2022-12-18T22:39:10.077Z,17.87
2022-12-18T22:41:36.715Z,18.23
2022-12-18T22:44:03.417Z,18.37
2022-12-18T22:46:36.942Z,17.63
2022-12-18T22:49:03.849Z,19.37
2022-12-18T22:51:30.538Z,18.07
2022-12-18T22:53:57.236Z,17.90
2022-12-18T22:56:23.949Z,18.00
2022-12-18T22:58:51.322Z,17.50
2022-12-18T23:01:21.640Z,17.33
2022-12-18T23:03:49.415Z,18.33
2022-12-18T23:06:16.375Z,18.17
2022-12-18T23:08:43.564Z,17.40
2022-12-18T23:11:11.197Z,17.93
2022-12-18T23:13:38.173Z,17.37
2022-12-18T23:16:09.943Z,17.47
2022-12-18T23:18:37.222Z,17.73
2022-12-18T23:21:11.019Z,16.00
2022-12-18T23:23:38.589Z,16.60
2022-12-18T23:26:24.478Z,16.67
2022-12-18T23:28:52.407Z,15.63
2022-12-18T23:31:20.390Z,15.63
2022-12-18T23:33:49.612Z,15.63
2022-12-18T23:36:17.148Z,16.60
2022-12-18T23:38:48.377Z,15.17
2022-12-18T23:41:16.284Z,16.13
2022-12-18T23:43:43.130Z,16.13
2022-12-18T23:46:19.588Z,14.63
2022-12-18T23:48:46.598Z,15.17
2022-12-18T23:51:14.692Z,15.20
2022-12-18T23:53:41.532Z,16.70
2022-12-18T23:56:09.185Z,16.13
2022-12-18T23:58:36.664Z,15.00
